createdAt,value
2018-06-04T00:01:54.744Z,99.90
2018-06-04T00:05:05.387Z,99.90
2018-06-04T00:08:16.166Z,99.90
2018-06-04T00:11:26.577Z,99.90
2018-06-04T00:14:36.552Z,99.90
2018-06-04T00:17:46.631Z,99.90
2018-06-04T00:20:56.864Z,99.90
2018-06-04T00:24:07.338Z,99.90
2018-06-04T00:27:18.462Z,99.90
2018-06-04T00:30:28.813Z,99.90
2018-06-04T00:33:39.122Z,99.90
2018-06-04T00:36:49.235Z,99.90
2018-06-04T00:39:59.743Z,99.90
2018-06-04T00:43:10.408Z,99.90
2018-06-04T00:46:21.234Z,99.90
2018-06-04T00:49:31.407Z,99.90
2018-06-04T00:52:41.827Z,99.90
2018-06-04T00:56:03.241Z,99.90
2018-06-04T00:59:13.539Z,99.90
2018-06-04T01:02:23.381Z,99.90
2018-06-04T01:05:33.648Z,99.90
2018-06-04T01:08:44.427Z,99.90
2018-06-04T01:11:54.823Z,99.90
2018-06-04T01:15:05.486Z,99.90
2018-06-04T01:18:15.436Z,99.90
2018-06-04T01:21:25.695Z,99.90
2018-06-04T01:24:35.467Z,99.90
2018-06-04T01:27:45.603Z,99.90
2018-06-04T01:30:55.998Z,99.90
2018-06-04T01:34:06.507Z,99.90
2018-06-04T01:37:16.694Z,99.90
2018-06-04T01:40:27.102Z,99.90
2018-06-04T01:43:37.501Z,99.90
2018-06-04T01:46:47.650Z,99.90
2018-06-04T01:49:58.247Z,99.90
2018-06-04T01:53:08.970Z,99.90
2018-06-04T01:56:19.578Z,99.90
2018-06-04T01:59:30.419Z,99.90
2018-06-04T02:02:40.959Z,99.90
2018-06-04T02:05:50.857Z,99.90
2018-06-04T02:09:00.843Z,99.90
2018-06-04T02:12:11.308Z,99.90
2018-06-04T02:15:21.882Z,99.90
2018-06-04T02:18:32.398Z,99.90
2018-06-04T02:21:42.560Z,99.90
2018-06-04T02:24:52.934Z,99.90
2018-06-04T02:28:03.263Z,99.90
2018-06-04T02:31:13.155Z,99.90
2018-06-04T02:34:23.887Z,99.90
2018-06-04T02:37:33.715Z,99.90
2018-06-04T02:40:44.073Z,99.90
2018-06-04T02:43:54.694Z,99.90
2018-06-04T02:47:05.895Z,99.90
2018-06-04T02:50:16.597Z,99.90
2018-06-04T02:53:26.654Z,99.90
2018-06-04T02:56:36.563Z,99.90
2018-06-04T02:59:46.533Z,99.90
2018-06-04T03:02:56.779Z,99.90
2018-06-04T03:06:07.871Z,99.90
2018-06-04T03:09:18.398Z,99.90
2018-06-04T03:12:28.379Z,99.90
2018-06-04T03:15:38.833Z,99.90
2018-06-04T03:18:48.622Z,99.90
2018-06-04T03:21:58.562Z,99.90
2018-06-04T03:25:09.331Z,99.90
2018-06-04T03:28:19.798Z,99.90
2018-06-04T03:31:29.934Z,99.90
2018-06-04T03:34:40.901Z,99.90
2018-06-04T03:37:50.864Z,99.90
2018-06-04T03:41:02.275Z,99.90
2018-06-04T03:44:13.892Z,99.90
2018-06-04T03:47:26.305Z,99.90
2018-06-04T03:50:39.217Z,99.90
2018-06-04T03:53:50.025Z,99.90
2018-06-04T03:57:01.694Z,99.90
2018-06-04T04:00:13.083Z,99.90
2018-06-04T04:03:24.821Z,99.90
2018-06-04T04:06:36.770Z,99.90
2018-06-04T04:09:48.389Z,99.90
2018-06-04T04:13:00.462Z,99.90
2018-06-04T04:16:13.016Z,99.90
2018-06-04T04:19:23.976Z,99.90
2018-06-04T04:22:35.663Z,99.90
2018-06-04T04:25:46.601Z,99.90
2018-06-04T04:28:57.915Z,99.90
2018-06-04T04:32:08.972Z,99.90
2018-06-04T04:35:21.446Z,99.90
2018-06-04T04:38:31.951Z,99.90
2018-06-04T04:41:42.114Z,99.90
2018-06-04T04:44:52.442Z,99.90
2018-06-04T04:48:02.683Z,99.90
2018-06-04T04:54:24.322Z,99.90
2018-06-04T04:57:35.395Z,99.90
2018-06-04T05:00:45.832Z,99.90
2018-06-04T05:03:55.965Z,99.90
2018-06-04T05:07:05.999Z,99.90
2018-06-04T05:10:17.438Z,99.90
2018-06-04T05:13:27.459Z,99.90
2018-06-04T05:16:37.674Z,99.90
2018-06-04T05:19:47.726Z,99.90
2018-06-04T05:22:59.122Z,99.90
2018-06-04T05:26:09.734Z,99.90
2018-06-04T05:29:20.046Z,99.90
2018-06-04T05:32:30.334Z,99.90
2018-06-04T05:35:41.171Z,99.90
2018-06-04T05:38:51.806Z,99.90
2018-06-04T05:42:02.090Z,99.90
2018-06-04T05:45:12.462Z,99.90
2018-06-04T05:48:22.654Z,99.90
2018-06-04T05:51:32.739Z,99.90
2018-06-04T05:54:42.806Z,99.90
2018-06-04T05:57:53.405Z,99.90
2018-06-04T06:01:03.337Z,99.90
2018-06-04T06:04:13.327Z,99.90
2018-06-04T06:07:23.204Z,99.90
2018-06-04T06:10:33.234Z,99.90
2018-06-04T06:13:43.894Z,99.90
2018-06-04T06:16:54.514Z,99.90
2018-06-04T06:20:06.015Z,99.90
2018-06-04T06:23:16.098Z,99.90
2018-06-04T06:26:26.383Z,99.90
2018-06-04T06:29:36.700Z,99.90
2018-06-04T06:32:46.744Z,99.90
2018-06-04T06:35:57.591Z,99.90
2018-06-04T06:39:09.470Z,99.90
2018-06-04T06:42:20.103Z,99.90
2018-06-04T06:45:30.046Z,99.90
2018-06-04T06:48:40.835Z,99.90
2018-06-04T06:51:50.888Z,99.90
2018-06-04T06:55:01.298Z,99.90
2018-06-04T06:58:11.330Z,99.90
2018-06-04T07:01:21.706Z,99.90
2018-06-04T07:04:32.092Z,99.90
2018-06-04T07:07:41.942Z,99.90
2018-06-04T07:10:52.438Z,99.90
2018-06-04T07:14:02.809Z,99.90
2018-06-04T07:17:12.741Z,99.90
2018-06-04T07:20:23.178Z,99.90
2018-06-04T07:23:33.268Z,99.90
2018-06-04T07:26:43.258Z,99.90
2018-06-04T07:29:53.974Z,99.90
2018-06-04T07:33:04.687Z,99.90
2018-06-04T07:36:15.800Z,99.90
2018-06-04T07:39:25.691Z,99.90
2018-06-04T07:42:35.918Z,99.90
2018-06-04T07:45:46.042Z,99.90
2018-06-04T07:48:56.480Z,99.90
2018-06-04T07:52:06.590Z,99.90
2018-06-04T07:55:16.459Z,99.90
2018-06-04T07:58:27.859Z,99.90
2018-06-04T08:01:38.215Z,99.90
2018-06-04T08:04:47.894Z,99.90
2018-06-04T08:07:58.829Z,99.90
2018-06-04T08:11:09.091Z,99.90
2018-06-04T08:14:19.594Z,99.90
2018-06-04T08:17:29.670Z,99.90
2018-06-04T08:20:40.156Z,99.90
2018-06-04T08:23:50.561Z,99.90
2018-06-04T08:27:00.782Z,99.90
2018-06-04T08:30:11.054Z,99.90
2018-06-04T08:33:20.720Z,99.90
2018-06-04T08:36:30.684Z,99.90
2018-06-04T08:39:40.738Z,99.90
2018-06-04T08:42:51.014Z,99.90
2018-06-04T08:46:01.059Z,99.90
2018-06-04T08:49:10.940Z,99.90
2018-06-04T08:52:20.702Z,99.90
2018-06-04T08:55:30.792Z,99.90
2018-06-04T08:58:41.060Z,99.90
2018-06-04T09:01:50.873Z,99.90
2018-06-04T09:05:01.147Z,99.90
2018-06-04T09:08:11.403Z,99.90
2018-06-04T09:11:21.268Z,99.90
2018-06-04T09:14:31.444Z,99.90
2018-06-04T09:17:41.974Z,99.90
2018-06-04T09:20:51.707Z,99.90
2018-06-04T09:24:01.927Z,99.90
2018-06-04T09:27:12.167Z,99.90
2018-06-04T09:30:22.338Z,99.90
2018-06-04T09:33:32.398Z,99.90
2018-06-04T09:36:43.514Z,99.90
2018-06-04T09:39:53.765Z,99.90
2018-06-04T09:43:04.166Z,99.90
2018-06-04T09:46:14.383Z,99.90
2018-06-04T09:49:24.164Z,99.90
2018-06-04T09:52:34.323Z,99.90
2018-06-04T09:55:43.929Z,99.90
2018-06-04T09:58:54.062Z,99.90
2018-06-04T10:02:03.982Z,99.90
2018-06-04T10:05:13.522Z,99.90
2018-06-04T10:08:23.683Z,99.90
2018-06-04T10:11:33.625Z,99.90
2018-06-04T10:14:43.593Z,99.90
2018-06-04T10:17:53.830Z,99.90
2018-06-04T10:21:04.120Z,99.90
2018-06-04T10:24:13.762Z,99.90
2018-06-04T10:27:23.967Z,99.00
2018-06-04T10:30:34.329Z,99.90
2018-06-04T10:33:44.169Z,97.80
2018-06-04T10:36:54.236Z,96.70
2018-06-04T10:40:05.137Z,94.40
2018-06-04T10:43:14.837Z,96.60
2018-06-04T10:46:25.166Z,98.20
2018-06-04T10:49:35.240Z,97.80
2018-06-04T10:52:45.597Z,99.80
2018-06-04T10:55:55.360Z,98.90
2018-06-04T10:59:05.325Z,98.20
2018-06-04T11:02:15.189Z,99.90
2018-06-04T11:05:25.133Z,99.90
2018-06-04T11:08:34.863Z,99.90
2018-06-04T11:11:44.846Z,99.90
2018-06-04T11:14:55.322Z,99.90
2018-06-04T11:18:05.507Z,98.60
2018-06-04T11:21:15.594Z,97.30
2018-06-04T11:24:25.887Z,96.60
2018-06-04T11:27:36.058Z,94.20
2018-06-04T11:30:46.453Z,95.60
2018-06-04T11:33:56.225Z,93.50
2018-06-04T11:37:06.404Z,90.50
2018-06-04T11:40:16.119Z,90.70
2018-06-04T11:43:26.153Z,90.00
2018-06-04T11:46:36.497Z,93.30
2018-06-04T11:49:46.681Z,91.40
2018-06-04T11:52:56.567Z,92.20
2018-06-04T11:56:06.254Z,87.90
2018-06-04T11:59:16.494Z,84.60
2018-06-04T12:02:26.582Z,82.50
2018-06-04T12:05:36.865Z,82.80
2018-06-04T12:08:47.419Z,80.90
2018-06-04T12:11:57.387Z,79.20
2018-06-04T12:15:08.338Z,77.80
2018-06-04T12:18:18.838Z,73.90
2018-06-04T12:21:28.713Z,80.00
2018-06-04T12:24:38.821Z,76.00
2018-06-04T12:27:48.801Z,78.30
2018-06-04T12:30:58.486Z,78.90
2018-06-04T12:34:08.847Z,80.20
2018-06-04T12:37:18.834Z,80.10
2018-06-04T12:40:29.093Z,76.40
2018-06-04T12:43:39.767Z,76.00
2018-06-04T12:46:50.121Z,78.30
2018-06-04T12:50:00.646Z,73.00
2018-06-04T12:53:11.074Z,72.90
2018-06-04T12:56:21.182Z,76.00
2018-06-04T12:59:31.306Z,74.80
2018-06-04T13:02:41.209Z,74.00
2018-06-04T13:05:51.318Z,74.20
2018-06-04T13:09:01.562Z,70.80
2018-06-04T13:12:11.626Z,70.70
2018-06-04T13:15:21.473Z,68.90
2018-06-04T13:18:31.451Z,72.10
2018-06-04T13:21:41.757Z,72.40
2018-06-04T13:24:51.686Z,73.40
2018-06-04T13:28:01.515Z,71.30
2018-06-04T13:31:11.631Z,71.00
2018-06-04T13:34:21.719Z,73.50
2018-06-04T13:37:31.815Z,67.50
2018-06-04T13:40:41.962Z,69.70
2018-06-04T13:43:51.831Z,68.90
2018-06-04T13:47:01.846Z,68.30
2018-06-04T13:50:12.433Z,70.10
2018-06-04T13:53:22.925Z,69.40
2018-06-04T13:56:32.633Z,71.20
2018-06-04T13:59:42.482Z,72.70
2018-06-04T14:02:52.775Z,70.00
2018-06-04T14:06:02.328Z,69.80
2018-06-04T14:09:12.257Z,70.40
2018-06-04T14:12:22.247Z,71.50
2018-06-04T14:15:32.830Z,73.60
2018-06-04T14:18:43.267Z,74.60
2018-06-04T14:21:53.310Z,75.90
2018-06-04T14:25:02.932Z,74.70
2018-06-04T14:28:13.165Z,74.40
2018-06-04T14:31:23.133Z,74.60
2018-06-04T14:34:33.199Z,72.70
2018-06-04T14:37:43.071Z,74.80
2018-06-04T14:40:52.687Z,74.00
2018-06-04T14:44:03.025Z,77.20
2018-06-04T14:47:13.071Z,76.40
2018-06-04T14:50:23.441Z,75.60
2018-06-04T14:53:33.469Z,73.20
2018-06-04T14:56:44.304Z,74.40
2018-06-04T14:59:53.975Z,74.60
2018-06-04T15:03:03.729Z,75.20
2018-06-04T15:06:13.410Z,75.50
2018-06-04T15:09:24.108Z,74.50
2018-06-04T15:12:34.370Z,74.60
2018-06-04T15:15:45.510Z,74.30
2018-06-04T15:18:55.641Z,74.60
2018-06-04T15:22:05.754Z,73.30
2018-06-04T15:25:15.436Z,74.90
2018-06-04T15:28:25.882Z,72.60
2018-06-04T15:31:35.949Z,74.70
2018-06-04T15:34:45.831Z,73.30
2018-06-04T15:37:56.711Z,73.20
2018-06-04T15:41:07.062Z,73.80
2018-06-04T15:44:18.644Z,72.60
2018-06-04T15:47:29.363Z,73.20
2018-06-04T15:50:39.692Z,71.60
2018-06-04T15:53:50.206Z,68.40
2018-06-04T15:57:00.303Z,67.80
2018-06-04T16:00:10.625Z,67.70
2018-06-04T16:03:20.731Z,67.30
2018-06-04T16:06:31.070Z,68.20
2018-06-04T16:12:51.462Z,65.50
2018-06-04T16:16:01.212Z,67.70
2018-06-04T16:19:10.786Z,68.00
2018-06-04T16:22:21.207Z,66.60
2018-06-04T16:25:31.385Z,67.10
2018-06-04T16:28:41.062Z,70.00
2018-06-04T16:31:50.655Z,70.70
2018-06-04T16:35:01.275Z,69.30
2018-06-04T16:38:11.136Z,71.90
2018-06-04T16:41:21.550Z,73.60
2018-06-04T16:44:31.355Z,74.20
2018-06-04T16:47:41.917Z,73.50
2018-06-04T16:50:51.702Z,76.00
2018-06-04T16:54:01.510Z,78.70
2018-06-04T16:57:11.531Z,76.80
2018-06-04T17:00:21.432Z,75.30
2018-06-04T17:03:31.474Z,76.30
2018-06-04T17:06:41.857Z,77.70
2018-06-04T17:09:52.059Z,78.40
2018-06-04T17:13:01.964Z,75.50
2018-06-04T17:16:12.450Z,77.20
2018-06-04T17:19:22.325Z,78.70
2018-06-04T17:22:32.783Z,80.20
2018-06-04T17:25:43.406Z,82.20
2018-06-04T17:28:53.518Z,83.40
2018-06-04T17:32:03.421Z,82.50
2018-06-04T17:35:13.271Z,84.10
2018-06-04T17:38:23.268Z,83.30
2018-06-04T17:41:33.071Z,84.50
2018-06-04T17:44:42.981Z,86.20
2018-06-04T17:47:53.392Z,85.40
2018-06-04T17:51:03.600Z,85.50
2018-06-04T17:54:13.427Z,86.40
2018-06-04T17:57:23.306Z,85.20
2018-06-04T18:00:33.023Z,87.00
2018-06-04T18:03:43.382Z,88.00
2018-06-04T18:06:53.333Z,89.00
2018-06-04T18:10:05.290Z,89.80
2018-06-04T18:13:15.972Z,90.20
2018-06-04T18:16:25.841Z,91.20
2018-06-04T18:19:35.690Z,91.90
2018-06-04T18:22:45.470Z,92.60
2018-06-04T18:25:55.334Z,93.00
2018-06-04T18:29:05.402Z,93.90
2018-06-04T18:32:15.216Z,95.00
2018-06-04T18:35:25.288Z,95.70
2018-06-04T18:38:35.117Z,97.50
2018-06-04T18:41:45.319Z,95.60
2018-06-04T18:44:55.732Z,96.30
2018-06-04T18:48:05.896Z,96.60
2018-06-04T18:51:16.854Z,97.80
2018-06-04T18:54:27.117Z,98.90
2018-06-04T18:57:38.024Z,99.60
2018-06-04T19:00:48.603Z,99.90
2018-06-04T19:03:59.118Z,99.90
2018-06-04T19:07:08.942Z,99.90
2018-06-04T19:10:19.139Z,99.90
2018-06-04T19:13:29.230Z,99.90
2018-06-04T19:16:39.286Z,99.90
2018-06-04T19:19:50.054Z,99.90
2018-06-04T19:23:00.105Z,99.90
2018-06-04T19:26:09.686Z,99.90
2018-06-04T19:29:20.000Z,99.90
2018-06-04T19:32:30.059Z,99.90
2018-06-04T19:35:40.380Z,99.90
2018-06-04T19:38:51.449Z,99.90
2018-06-04T19:42:02.046Z,99.90
2018-06-04T19:45:12.428Z,99.90
2018-06-04T19:48:22.489Z,99.90
2018-06-04T19:51:32.333Z,99.90
2018-06-04T19:54:42.525Z,99.90
2018-06-04T19:57:53.341Z,99.90
2018-06-04T20:01:03.660Z,99.90
2018-06-04T20:04:13.781Z,99.90
2018-06-04T20:07:24.006Z,99.90
2018-06-04T20:10:35.502Z,99.90
2018-06-04T20:13:45.325Z,99.90
2018-06-04T20:16:55.469Z,99.90
2018-06-04T20:20:07.955Z,99.90
2018-06-04T20:23:18.206Z,99.90
2018-06-04T20:26:29.753Z,99.90
2018-06-04T20:29:40.034Z,99.90
2018-06-04T20:36:25.019Z,99.90
2018-06-04T20:39:35.232Z,99.90
2018-06-04T20:42:45.884Z,99.90
2018-06-04T20:45:55.866Z,99.90
2018-06-04T20:49:05.754Z,99.90
2018-06-04T20:52:16.414Z,99.90
2018-06-04T20:55:26.725Z,99.90
2018-06-04T20:58:38.190Z,99.90
2018-06-04T21:01:48.482Z,99.90
2018-06-04T21:04:58.647Z,99.90
2018-06-04T21:08:09.099Z,99.90
2018-06-04T21:11:18.909Z,99.90
2018-06-04T21:14:28.786Z,99.90
2018-06-04T21:17:39.516Z,99.90
2018-06-04T21:20:49.591Z,99.90
2018-06-04T21:23:59.406Z,99.90
2018-06-04T21:27:09.577Z,99.90
2018-06-04T21:30:20.010Z,99.90
2018-06-04T21:33:29.957Z,99.90
2018-06-04T21:36:40.354Z,99.90
2018-06-04T21:39:50.982Z,99.90
2018-06-04T21:43:01.711Z,99.90
2018-06-04T21:46:12.113Z,99.90
2018-06-04T21:49:22.722Z,99.90
2018-06-04T21:52:33.081Z,99.90
2018-06-04T21:55:42.959Z,99.90
2018-06-04T21:58:53.134Z,99.90
2018-06-04T22:02:04.397Z,99.90
2018-06-04T22:05:14.361Z,99.90
2018-06-04T22:08:24.925Z,99.90
2018-06-04T22:11:35.685Z,99.90
2018-06-04T22:14:45.585Z,99.90
2018-06-04T22:17:56.330Z,99.90
2018-06-04T22:21:07.875Z,99.90
2018-06-04T22:24:18.037Z,99.90
2018-06-04T22:27:27.944Z,99.90
2018-06-04T22:30:37.953Z,99.90
2018-06-04T22:33:48.159Z,99.90
2018-06-04T22:36:58.337Z,99.90
2018-06-04T22:40:09.433Z,99.90
2018-06-04T22:43:20.205Z,99.90
2018-06-04T22:46:30.590Z,99.90
2018-06-04T22:49:40.546Z,99.90
2018-06-04T22:52:51.145Z,99.90
2018-06-04T22:56:01.114Z,99.90
2018-06-04T22:59:11.129Z,99.90
2018-06-04T23:02:21.192Z,99.90
2018-06-04T23:05:31.495Z,99.90
2018-06-04T23:08:41.737Z,99.90
2018-06-04T23:11:51.725Z,99.90
2018-06-04T23:15:01.877Z,99.90
2018-06-04T23:18:12.242Z,99.90
2018-06-04T23:21:22.335Z,99.90
2018-06-04T23:24:32.947Z,99.90
2018-06-04T23:27:43.763Z,99.90
2018-06-04T23:30:53.798Z,99.90
2018-06-04T23:34:04.281Z,99.90
2018-06-04T23:37:14.430Z,99.90
2018-06-04T23:40:24.714Z,99.90
2018-06-04T23:43:34.638Z,99.90
2018-06-04T23:46:44.898Z,99.90
2018-06-04T23:49:55.177Z,99.90
2018-06-04T23:53:05.425Z,99.90
2018-06-04T23:56:15.594Z,99.90
2018-06-04T23:59:26.341Z,99.90
